sensor_id;sensor_type;location;lat;lon;timestamp;P1;durP1;ratioP1;P2;durP2;ratioP2
16906;SDS011;8570;52.380;4.654;2022-12-18T00:04:42;89.00;;;34.00;;
16906;SDS011;8570;52.380;4.654;2022-12-18T00:09:46;87.57;;;30.93;;
16906;SDS011;8570;52.380;4.654;2022-12-18T00:14:48;81.63;;;29.20;;
16906;SDS011;8570;52.380;4.654;2022-12-18T00:19:50;70.67;;;28.30;;
16906;SDS011;8570;52.380;4.654;2022-12-18T00:24:53;79.60;;;30.73;;
16906;SDS011;8570;52.380;4.654;2022-12-18T00:29:55;66.63;;;28.63;;
16906;SDS011;8570;52.380;4.654;2022-12-18T00:34:57;78.37;;;29.10;;
16906;SDS011;8570;52.380;4.654;2022-12-18T00:40:00;71.90;;;28.53;;
16906;SDS011;8570;52.380;4.654;2022-12-18T00:45:02;77.47;;;30.63;;
16906;SDS011;8570;52.380;4.654;2022-12-18T00:50:05;79.37;;;29.93;;
16906;SDS011;8570;52.380;4.654;2022-12-18T00:55:09;72.87;;;29.67;;
16906;SDS011;8570;52.380;4.654;2022-12-18T01:00:12;69.40;;;27.47;;
16906;SDS011;8570;52.380;4.654;2022-12-18T01:05:15;76.07;;;27.47;;
16906;SDS011;8570;52.380;4.654;2022-12-18T01:10:19;73.00;;;27.97;;
16906;SDS011;8570;52.380;4.654;2022-12-18T01:15:21;75.07;;;27.63;;
16906;SDS011;8570;52.380;4.654;2022-12-18T01:20:22;69.27;;;28.43;;
16906;SDS011;8570;52.380;4.654;2022-12-18T01:25:26;70.53;;;28.77;;
16906;SDS011;8570;52.380;4.654;2022-12-18T01:30:28;72.83;;;29.50;;
16906;SDS011;8570;52.380;4.654;2022-12-18T01:35:29;70.93;;;27.93;;
16906;SDS011;8570;52.380;4.654;2022-12-18T01:40:33;68.17;;;27.60;;
16906;SDS011;8570;52.380;4.654;2022-12-18T01:45:35;76.43;;;26.33;;
16906;SDS011;8570;52.380;4.654;2022-12-18T01:50:37;77.67;;;26.90;;
16906;SDS011;8570;52.380;4.654;2022-12-18T01:55:43;77.23;;;28.90;;
16906;SDS011;8570;52.380;4.654;2022-12-18T02:00:50;70.03;;;28.70;;
16906;SDS011;8570;52.380;4.654;2022-12-18T02:05:54;66.57;;;26.37;;
16906;SDS011;8570;52.380;4.654;2022-12-18T02:11:05;68.00;;;25.73;;
16906;SDS011;8570;52.380;4.654;2022-12-18T02:16:13;67.63;;;28.60;;
16906;SDS011;8570;52.380;4.654;2022-12-18T02:21:23;73.93;;;27.77;;
16906;SDS011;8570;52.380;4.654;2022-12-18T02:26:34;74.70;;;27.73;;
16906;SDS011;8570;52.380;4.654;2022-12-18T02:31:40;78.17;;;28.03;;
16906;SDS011;8570;52.380;4.654;2022-12-18T02:36:46;64.00;;;23.67;;
16906;SDS011;8570;52.380;4.654;2022-12-18T02:41:52;80.03;;;26.63;;
16906;SDS011;8570;52.380;4.654;2022-12-18T02:46:54;69.90;;;27.23;;
16906;SDS011;8570;52.380;4.654;2022-12-18T02:51:57;62.17;;;23.33;;
16906;SDS011;8570;52.380;4.654;2022-12-18T02:57:10;65.80;;;22.93;;
16906;SDS011;8570;52.380;4.654;2022-12-18T03:02:18;70.70;;;25.47;;
16906;SDS011;8570;52.380;4.654;2022-12-18T03:07:24;60.90;;;24.67;;
16906;SDS011;8570;52.380;4.654;2022-12-18T03:12:36;58.30;;;24.83;;
16906;SDS011;8570;52.380;4.654;2022-12-18T03:17:41;76.27;;;25.60;;
16906;SDS011;8570;52.380;4.654;2022-12-18T03:22:49;75.27;;;23.33;;
16906;SDS011;8570;52.380;4.654;2022-12-18T03:27:56;78.90;;;27.20;;
16906;SDS011;8570;52.380;4.654;2022-12-18T03:33:02;60.20;;;24.50;;
16906;SDS011;8570;52.380;4.654;2022-12-18T03:38:09;62.33;;;25.07;;
16906;SDS011;8570;52.380;4.654;2022-12-18T03:43:16;61.93;;;25.63;;
16906;SDS011;8570;52.380;4.654;2022-12-18T03:48:24;58.00;;;25.47;;
16906;SDS011;8570;52.380;4.654;2022-12-18T03:53:32;55.70;;;23.80;;
16906;SDS011;8570;52.380;4.654;2022-12-18T03:58:41;61.27;;;24.63;;
16906;SDS011;8570;52.380;4.654;2022-12-18T04:03:46;51.90;;;23.50;;
16906;SDS011;8570;52.380;4.654;2022-12-18T04:08:52;57.20;;;21.77;;
16906;SDS011;8570;52.380;4.654;2022-12-18T04:13:56;52.67;;;22.73;;
16906;SDS011;8570;52.380;4.654;2022-12-18T04:18:59;54.53;;;23.63;;
16906;SDS011;8570;52.380;4.654;2022-12-18T04:24:01;54.10;;;23.17;;
16906;SDS011;8570;52.380;4.654;2022-12-18T04:29:04;48.47;;;22.00;;
16906;SDS011;8570;52.380;4.654;2022-12-18T04:34:06;53.27;;;22.23;;
16906;SDS011;8570;52.380;4.654;2022-12-18T04:39:08;44.30;;;22.43;;
16906;SDS011;8570;52.380;4.654;2022-12-18T04:44:11;49.67;;;21.77;;
16906;SDS011;8570;52.380;4.654;2022-12-18T04:49:13;52.07;;;22.30;;
16906;SDS011;8570;52.380;4.654;2022-12-18T04:54:15;50.53;;;22.57;;
16906;SDS011;8570;52.380;4.654;2022-12-18T04:59:20;50.40;;;23.60;;
16906;SDS011;8570;52.380;4.654;2022-12-18T05:04:22;51.07;;;22.50;;
16906;SDS011;8570;52.380;4.654;2022-12-18T05:09:24;44.43;;;21.10;;
16906;SDS011;8570;52.380;4.654;2022-12-18T05:14:27;48.30;;;21.70;;
16906;SDS011;8570;52.380;4.654;2022-12-18T05:19:29;46.27;;;22.47;;
16906;SDS011;8570;52.380;4.654;2022-12-18T05:24:31;52.47;;;23.40;;
16906;SDS011;8570;52.380;4.654;2022-12-18T05:29:34;49.50;;;22.93;;
16906;SDS011;8570;52.380;4.654;2022-12-18T05:34:36;50.17;;;23.10;;
16906;SDS011;8570;52.380;4.654;2022-12-18T05:39:41;45.87;;;22.13;;
16906;SDS011;8570;52.380;4.654;2022-12-18T05:44:45;48.70;;;22.63;;
16906;SDS011;8570;52.380;4.654;2022-12-18T05:49:47;51.27;;;23.83;;
16906;SDS011;8570;52.380;4.654;2022-12-18T05:54:49;50.27;;;23.47;;
16906;SDS011;8570;52.380;4.654;2022-12-18T05:59:52;53.27;;;23.67;;
16906;SDS011;8570;52.380;4.654;2022-12-18T06:04:54;54.40;;;24.77;;
16906;SDS011;8570;52.380;4.654;2022-12-18T06:09:56;49.87;;;23.53;;
16906;SDS011;8570;52.380;4.654;2022-12-18T06:14:59;52.80;;;24.77;;
16906;SDS011;8570;52.380;4.654;2022-12-18T06:20:01;52.70;;;24.90;;
16906;SDS011;8570;52.380;4.654;2022-12-18T06:25:05;54.17;;;24.77;;
16906;SDS011;8570;52.380;4.654;2022-12-18T06:30:11;62.17;;;24.80;;
16906;SDS011;8570;52.380;4.654;2022-12-18T06:35:14;53.87;;;24.13;;
16906;SDS011;8570;52.380;4.654;2022-12-18T06:40:16;60.07;;;26.83;;
16906;SDS011;8570;52.380;4.654;2022-12-18T06:45:19;50.70;;;24.47;;
16906;SDS011;8570;52.380;4.654;2022-12-18T06:50:21;50.93;;;24.43;;
16906;SDS011;8570;52.380;4.654;2022-12-18T06:55:23;49.57;;;23.40;;
16906;SDS011;8570;52.380;4.654;2022-12-18T07:00:26;48.53;;;23.73;;
16906;SDS011;8570;52.380;4.654;2022-12-18T07:05:28;45.80;;;22.73;;
16906;SDS011;8570;52.380;4.654;2022-12-18T07:10:30;45.07;;;23.20;;
16906;SDS011;8570;52.380;4.654;2022-12-18T07:15:35;50.27;;;24.47;;
16906;SDS011;8570;52.380;4.654;2022-12-18T07:20:37;47.30;;;22.77;;
16906;SDS011;8570;52.380;4.654;2022-12-18T07:25:40;46.07;;;23.07;;
16906;SDS011;8570;52.380;4.654;2022-12-18T07:30:43;48.67;;;23.53;;
16906;SDS011;8570;52.380;4.654;2022-12-18T07:35:45;47.83;;;22.80;;
16906;SDS011;8570;52.380;4.654;2022-12-18T07:40:47;37.13;;;21.03;;
16906;SDS011;8570;52.380;4.654;2022-12-18T07:45:50;38.87;;;19.97;;
16906;SDS011;8570;52.380;4.654;2022-12-18T07:50:52;32.77;;;19.43;;
16906;SDS011;8570;52.380;4.654;2022-12-18T07:55:57;35.07;;;19.07;;
16906;SDS011;8570;52.380;4.654;2022-12-18T08:01:04;35.23;;;18.80;;
16906;SDS011;8570;52.380;4.654;2022-12-18T08:06:07;32.77;;;19.37;;
16906;SDS011;8570;52.380;4.654;2022-12-18T08:11:10;35.13;;;19.30;;
16906;SDS011;8570;52.380;4.654;2022-12-18T08:16:13;32.23;;;18.33;;
16906;SDS011;8570;52.380;4.654;2022-12-18T08:21:15;33.67;;;18.10;;
16906;SDS011;8570;52.380;4.654;2022-12-18T08:26:21;31.07;;;18.70;;
16906;SDS011;8570;52.380;4.654;2022-12-18T08:31:27;33.67;;;17.77;;
16906;SDS011;8570;52.380;4.654;2022-12-18T08:36:30;31.40;;;16.60;;
16906;SDS011;8570;52.380;4.654;2022-12-18T08:41:32;32.73;;;17.97;;
16906;SDS011;8570;52.380;4.654;2022-12-18T08:46:36;32.20;;;17.37;;
16906;SDS011;8570;52.380;4.654;2022-12-18T08:51:39;29.80;;;16.10;;
16906;SDS011;8570;52.380;4.654;2022-12-18T08:56:41;27.37;;;16.43;;
16906;SDS011;8570;52.380;4.654;2022-12-18T09:01:45;28.60;;;16.63;;
16906;SDS011;8570;52.380;4.654;2022-12-18T09:06:47;24.93;;;16.40;;
16906;SDS011;8570;52.380;4.654;2022-12-18T09:11:52;26.50;;;16.13;;
16906;SDS011;8570;52.380;4.654;2022-12-18T09:16:56;24.60;;;15.80;;
16906;SDS011;8570;52.380;4.654;2022-12-18T09:21:58;25.07;;;16.50;;
16906;SDS011;8570;52.380;4.654;2022-12-18T09:27:00;27.87;;;16.10;;
16906;SDS011;8570;52.380;4.654;2022-12-18T09:32:03;26.97;;;16.00;;
16906;SDS011;8570;52.380;4.654;2022-12-18T09:37:05;27.20;;;15.97;;
16906;SDS011;8570;52.380;4.654;2022-12-18T09:42:09;25.97;;;16.40;;
16906;SDS011;8570;52.380;4.654;2022-12-18T09:47:23;27.73;;;16.27;;
16906;SDS011;8570;52.380;4.654;2022-12-18T09:52:28;26.50;;;16.33;;
16906;SDS011;8570;52.380;4.654;2022-12-18T09:57:35;31.47;;;17.60;;
16906;SDS011;8570;52.380;4.654;2022-12-18T10:02:45;28.43;;;17.40;;
16906;SDS011;8570;52.380;4.654;2022-12-18T10:07:51;28.57;;;16.80;;
16906;SDS011;8570;52.380;4.654;2022-12-18T10:13:01;27.47;;;17.13;;
16906;SDS011;8570;52.380;4.654;2022-12-18T10:18:17;26.97;;;16.73;;
16906;SDS011;8570;52.380;4.654;2022-12-18T10:23:27;27.40;;;17.17;;
16906;SDS011;8570;52.380;4.654;2022-12-18T10:28:35;28.07;;;17.67;;
16906;SDS011;8570;52.380;4.654;2022-12-18T10:33:40;29.47;;;17.90;;
16906;SDS011;8570;52.380;4.654;2022-12-18T10:38:42;28.73;;;17.73;;
16906;SDS011;8570;52.380;4.654;2022-12-18T10:43:44;27.53;;;17.07;;
16906;SDS011;8570;52.380;4.654;2022-12-18T10:48:54;30.30;;;17.53;;
16906;SDS011;8570;52.380;4.654;2022-12-18T10:53:59;27.00;;;17.47;;
16906;SDS011;8570;52.380;4.654;2022-12-18T10:59:03;31.07;;;19.03;;
16906;SDS011;8570;52.380;4.654;2022-12-18T11:04:08;26.53;;;17.43;;
16906;SDS011;8570;52.380;4.654;2022-12-18T11:09:18;27.80;;;17.20;;
16906;SDS011;8570;52.380;4.654;2022-12-18T11:14:23;26.60;;;17.30;;
16906;SDS011;8570;52.380;4.654;2022-12-18T11:19:30;25.97;;;16.87;;
16906;SDS011;8570;52.380;4.654;2022-12-18T11:24:34;29.10;;;17.40;;
16906;SDS011;8570;52.380;4.654;2022-12-18T11:29:38;29.13;;;16.87;;
16906;SDS011;8570;52.380;4.654;2022-12-18T11:34:42;24.07;;;15.97;;
16906;SDS011;8570;52.380;4.654;2022-12-18T11:39:49;27.70;;;16.53;;
16906;SDS011;8570;52.380;4.654;2022-12-18T11:44:57;25.73;;;16.20;;
16906;SDS011;8570;52.380;4.654;2022-12-18T11:50:05;27.90;;;16.07;;
16906;SDS011;8570;52.380;4.654;2022-12-18T11:55:15;28.43;;;16.67;;
16906;SDS011;8570;52.380;4.654;2022-12-18T12:00:21;26.20;;;16.57;;
16906;SDS011;8570;52.380;4.654;2022-12-18T12:05:34;27.83;;;16.10;;
16906;SDS011;8570;52.380;4.654;2022-12-18T12:10:47;26.63;;;17.10;;
16906;SDS011;8570;52.380;4.654;2022-12-18T12:15:58;26.60;;;16.23;;
16906;SDS011;8570;52.380;4.654;2022-12-18T12:21:13;26.77;;;16.80;;
16906;SDS011;8570;52.380;4.654;2022-12-18T12:26:22;22.87;;;16.03;;
16906;SDS011;8570;52.380;4.654;2022-12-18T12:31:35;25.23;;;16.40;;
16906;SDS011;8570;52.380;4.654;2022-12-18T12:36:54;25.13;;;15.90;;
16906;SDS011;8570;52.380;4.654;2022-12-18T12:42:10;24.63;;;15.33;;
16906;SDS011;8570;52.380;4.654;2022-12-18T12:47:38;23.57;;;15.70;;
16906;SDS011;8570;52.380;4.654;2022-12-18T12:52:45;26.07;;;16.07;;
16906;SDS011;8570;52.380;4.654;2022-12-18T12:57:52;27.90;;;16.13;;
16906;SDS011;8570;52.380;4.654;2022-12-18T13:02:59;26.90;;;16.27;;
16906;SDS011;8570;52.380;4.654;2022-12-18T13:08:09;28.43;;;16.57;;
16906;SDS011;8570;52.380;4.654;2022-12-18T13:13:13;27.40;;;16.97;;
16906;SDS011;8570;52.380;4.654;2022-12-18T13:18:17;33.17;;;17.83;;
16906;SDS011;8570;52.380;4.654;2022-12-18T13:23:35;28.20;;;17.30;;
16906;SDS011;8570;52.380;4.654;2022-12-18T13:28:52;35.63;;;17.77;;
16906;SDS011;8570;52.380;4.654;2022-12-18T13:33:57;28.53;;;15.63;;
16906;SDS011;8570;52.380;4.654;2022-12-18T13:44:37;24.25;;;18.05;;
16906;SDS011;8570;52.380;4.654;2022-12-18T13:49:41;23.37;;;15.90;;
16906;SDS011;8570;52.380;4.654;2022-12-18T13:54:47;25.67;;;15.03;;
16906;SDS011;8570;52.380;4.654;2022-12-18T13:59:51;23.13;;;15.53;;
16906;SDS011;8570;52.380;4.654;2022-12-18T14:04:53;23.33;;;14.40;;
16906;SDS011;8570;52.380;4.654;2022-12-18T14:09:58;23.10;;;15.10;;
16906;SDS011;8570;52.380;4.654;2022-12-18T14:15:01;25.23;;;14.67;;
16906;SDS011;8570;52.380;4.654;2022-12-18T14:20:04;22.58;;;15.40;;
16906;SDS011;8570;52.380;4.654;2022-12-18T14:25:17;30.73;;;19.52;;
16906;SDS011;8570;52.380;4.654;2022-12-18T14:30:25;29.47;;;16.43;;
16906;SDS011;8570;52.380;4.654;2022-12-18T14:35:28;33.80;;;16.70;;
16906;SDS011;8570;52.380;4.654;2022-12-18T14:40:32;32.63;;;16.30;;
16906;SDS011;8570;52.380;4.654;2022-12-18T14:45:34;33.83;;;17.20;;
16906;SDS011;8570;52.380;4.654;2022-12-18T14:50:37;38.00;;;16.63;;
16906;SDS011;8570;52.380;4.654;2022-12-18T14:55:43;23.77;;;14.80;;
16906;SDS011;8570;52.380;4.654;2022-12-18T15:00:47;22.97;;;14.40;;
16906;SDS011;8570;52.380;4.654;2022-12-18T15:05:49;20.07;;;13.33;;
16906;SDS011;8570;52.380;4.654;2022-12-18T15:10:53;21.83;;;14.23;;
16906;SDS011;8570;52.380;4.654;2022-12-18T15:15:57;23.97;;;14.63;;
16906;SDS011;8570;52.380;4.654;2022-12-18T15:21:07;21.97;;;13.80;;
16906;SDS011;8570;52.380;4.654;2022-12-18T15:26:12;22.20;;;14.07;;
16906;SDS011;8570;52.380;4.654;2022-12-18T15:31:23;23.73;;;14.17;;
16906;SDS011;8570;52.380;4.654;2022-12-18T15:36:29;21.10;;;13.73;;
16906;SDS011;8570;52.380;4.654;2022-12-18T15:41:37;22.57;;;14.10;;
16906;SDS011;8570;52.380;4.654;2022-12-18T15:46:39;20.10;;;13.47;;
16906;SDS011;8570;52.380;4.654;2022-12-18T15:51:41;26.00;;;14.40;;
16906;SDS011;8570;52.380;4.654;2022-12-18T15:56:44;24.97;;;14.83;;
16906;SDS011;8570;52.380;4.654;2022-12-18T16:02:07;21.87;;;13.87;;
16906;SDS011;8570;52.380;4.654;2022-12-18T16:07:17;23.60;;;14.53;;
16906;SDS011;8570;52.380;4.654;2022-12-18T16:12:21;25.97;;;15.63;;
16906;SDS011;8570;52.380;4.654;2022-12-18T16:17:24;26.20;;;15.80;;
16906;SDS011;8570;52.380;4.654;2022-12-18T16:22:27;24.10;;;15.67;;
16906;SDS011;8570;52.380;4.654;2022-12-18T16:27:31;25.10;;;15.50;;
16906;SDS011;8570;52.380;4.654;2022-12-18T16:32:33;22.93;;;15.43;;
16906;SDS011;8570;52.380;4.654;2022-12-18T16:37:35;24.60;;;14.53;;
16906;SDS011;8570;52.380;4.654;2022-12-18T16:42:39;23.03;;;14.60;;
16906;SDS011;8570;52.380;4.654;2022-12-18T16:47:42;27.77;;;15.60;;
16906;SDS011;8570;52.380;4.654;2022-12-18T16:52:44;23.47;;;15.03;;
16906;SDS011;8570;52.380;4.654;2022-12-18T16:57:49;24.13;;;15.67;;
16906;SDS011;8570;52.380;4.654;2022-12-18T17:02:51;25.07;;;15.97;;
16906;SDS011;8570;52.380;4.654;2022-12-18T17:07:53;26.83;;;15.57;;
16906;SDS011;8570;52.380;4.654;2022-12-18T17:12:56;25.13;;;14.07;;
16906;SDS011;8570;52.380;4.654;2022-12-18T17:17:59;23.07;;;14.90;;
16906;SDS011;8570;52.380;4.654;2022-12-18T17:23:01;27.70;;;15.70;;
16906;SDS011;8570;52.380;4.654;2022-12-18T17:28:05;23.40;;;15.57;;
16906;SDS011;8570;52.380;4.654;2022-12-18T17:33:06;27.00;;;15.40;;
16906;SDS011;8570;52.380;4.654;2022-12-18T17:38:08;25.23;;;15.70;;
16906;SDS011;8570;52.380;4.654;2022-12-18T17:43:12;26.83;;;15.33;;
16906;SDS011;8570;52.380;4.654;2022-12-18T17:48:14;25.47;;;16.10;;
16906;SDS011;8570;52.380;4.654;2022-12-18T17:53:15;31.67;;;18.60;;
16906;SDS011;8570;52.380;4.654;2022-12-18T17:58:19;28.20;;;17.60;;
16906;SDS011;8570;52.380;4.654;2022-12-18T18:03:20;24.97;;;16.17;;
16906;SDS011;8570;52.380;4.654;2022-12-18T18:08:22;25.60;;;15.40;;
16906;SDS011;8570;52.380;4.654;2022-12-18T18:13:26;26.77;;;16.60;;
16906;SDS011;8570;52.380;4.654;2022-12-18T18:18:50;25.57;;;14.93;;
16906;SDS011;8570;52.380;4.654;2022-12-18T18:23:52;23.83;;;14.73;;
16906;SDS011;8570;52.380;4.654;2022-12-18T18:28:55;24.70;;;14.63;;
16906;SDS011;8570;52.380;4.654;2022-12-18T18:33:58;26.03;;;15.00;;
16906;SDS011;8570;52.380;4.654;2022-12-18T18:39:00;24.83;;;15.97;;
16906;SDS011;8570;52.380;4.654;2022-12-18T18:44:03;30.20;;;16.53;;
16906;SDS011;8570;52.380;4.654;2022-12-18T18:49:05;24.17;;;15.47;;
16906;SDS011;8570;52.380;4.654;2022-12-18T18:54:08;27.30;;;16.37;;
16906;SDS011;8570;52.380;4.654;2022-12-18T18:59:11;29.67;;;16.60;;
16906;SDS011;8570;52.380;4.654;2022-12-18T19:04:13;30.23;;;17.87;;
16906;SDS011;8570;52.380;4.654;2022-12-18T19:09:15;24.70;;;16.17;;
16906;SDS011;8570;52.380;4.654;2022-12-18T19:14:18;25.70;;;17.03;;
16906;SDS011;8570;52.380;4.654;2022-12-18T19:19:20;26.23;;;15.50;;
16906;SDS011;8570;52.380;4.654;2022-12-18T19:24:22;27.60;;;16.77;;
16906;SDS011;8570;52.380;4.654;2022-12-18T19:29:25;25.53;;;16.37;;
16906;SDS011;8570;52.380;4.654;2022-12-18T19:34:27;28.50;;;16.83;;
16906;SDS011;8570;52.380;4.654;2022-12-18T19:39:29;29.57;;;16.40;;
16906;SDS011;8570;52.380;4.654;2022-12-18T19:44:32;29.70;;;17.83;;
16906;SDS011;8570;52.380;4.654;2022-12-18T19:49:34;33.13;;;17.70;;
16906;SDS011;8570;52.380;4.654;2022-12-18T19:54:37;28.50;;;16.67;;
16906;SDS011;8570;52.380;4.654;2022-12-18T19:59:41;30.73;;;18.07;;
16906;SDS011;8570;52.380;4.654;2022-12-18T20:04:43;30.33;;;18.10;;
16906;SDS011;8570;52.380;4.654;2022-12-18T20:09:48;26.93;;;17.43;;
16906;SDS011;8570;52.380;4.654;2022-12-18T20:14:51;31.47;;;18.73;;
16906;SDS011;8570;52.380;4.654;2022-12-18T20:19:55;30.00;;;18.17;;
16906;SDS011;8570;52.380;4.654;2022-12-18T20:24:57;25.93;;;17.93;;
16906;SDS011;8570;52.380;4.654;2022-12-18T20:30:00;29.47;;;17.60;;
16906;SDS011;8570;52.380;4.654;2022-12-18T20:35:03;28.67;;;16.60;;
16906;SDS011;8570;52.380;4.654;2022-12-18T20:40:05;27.87;;;17.30;;
16906;SDS011;8570;52.380;4.654;2022-12-18T20:45:09;27.63;;;16.77;;
16906;SDS011;8570;52.380;4.654;2022-12-18T20:50:11;31.13;;;19.10;;
16906;SDS011;8570;52.380;4.654;2022-12-18T20:55:13;28.77;;;19.30;;
16906;SDS011;8570;52.380;4.654;2022-12-18T21:00:17;31.13;;;18.77;;
16906;SDS011;8570;52.380;4.654;2022-12-18T21:05:19;30.80;;;18.43;;
16906;SDS011;8570;52.380;4.654;2022-12-18T21:10:21;29.90;;;17.37;;
16906;SDS011;8570;52.380;4.654;2022-12-18T21:15:25;32.90;;;19.33;;
16906;SDS011;8570;52.380;4.654;2022-12-18T21:20:26;32.50;;;18.83;;
16906;SDS011;8570;52.380;4.654;2022-12-18T21:25:28;30.37;;;18.10;;
16906;SDS011;8570;52.380;4.654;2022-12-18T21:30:31;31.90;;;20.73;;
16906;SDS011;8570;52.380;4.654;2022-12-18T21:35:33;35.77;;;20.17;;
16906;SDS011;8570;52.380;4.654;2022-12-18T21:40:37;31.50;;;18.70;;
16906;SDS011;8570;52.380;4.654;2022-12-18T21:45:42;31.80;;;19.13;;
16906;SDS011;8570;52.380;4.654;2022-12-18T21:50:44;30.13;;;19.60;;
16906;SDS011;8570;52.380;4.654;2022-12-18T21:55:46;33.03;;;19.77;;
16906;SDS011;8570;52.380;4.654;2022-12-18T22:01:00;35.40;;;20.37;;
16906;SDS011;8570;52.380;4.654;2022-12-18T22:06:02;37.73;;;20.43;;
16906;SDS011;8570;52.380;4.654;2022-12-18T22:11:04;38.47;;;20.80;;
16906;SDS011;8570;52.380;4.654;2022-12-18T22:16:08;40.77;;;20.67;;
16906;SDS011;8570;52.380;4.654;2022-12-18T22:21:19;31.23;;;19.27;;
16906;SDS011;8570;52.380;4.654;2022-12-18T22:26:23;32.80;;;20.40;;
16906;SDS011;8570;52.380;4.654;2022-12-18T22:31:28;36.90;;;20.57;;
16906;SDS011;8570;52.380;4.654;2022-12-18T22:36:33;38.63;;;21.73;;
16906;SDS011;8570;52.380;4.654;2022-12-18T22:41:36;32.93;;;19.77;;
16906;SDS011;8570;52.380;4.654;2022-12-18T22:46:40;33.50;;;20.20;;
16906;SDS011;8570;52.380;4.654;2022-12-18T22:51:45;31.83;;;19.50;;
16906;SDS011;8570;52.380;4.654;2022-12-18T22:56:48;31.33;;;19.37;;
16906;SDS011;8570;52.380;4.654;2022-12-18T23:01:51;33.70;;;20.07;;
16906;SDS011;8570;52.380;4.654;2022-12-18T23:06:53;37.43;;;21.07;;
16906;SDS011;8570;52.380;4.654;2022-12-18T23:11:55;36.83;;;21.07;;
16906;SDS011;8570;52.380;4.654;2022-12-18T23:16:59;33.80;;;21.03;;
16906;SDS011;8570;52.380;4.654;2022-12-18T23:22:01;38.80;;;21.23;;
16906;SDS011;8570;52.380;4.654;2022-12-18T23:27:03;41.70;;;23.03;;
16906;SDS011;8570;52.380;4.654;2022-12-18T23:32:06;35.90;;;20.47;;
16906;SDS011;8570;52.380;4.654;2022-12-18T23:37:08;36.30;;;19.67;;
16906;SDS011;8570;52.380;4.654;2022-12-18T23:42:10;35.90;;;21.33;;
16906;SDS011;8570;52.380;4.654;2022-12-18T23:47:13;36.00;;;21.60;;
16906;SDS011;8570;52.380;4.654;2022-12-18T23:52:15;32.97;;;18.37;;
16906;SDS011;8570;52.380;4.654;2022-12-18T23:57:17;29.23;;;18.67;;
